Time;durP1;ratioP1;P1;durP2;ratioP2;P2;SDS_P1;SDS_P2;PMS_P1;PMS_P2;Temp;Humidity;BMP_temperature;BMP_pressure;BME280_temperature;BME280_humidity;BME280_pressure;Samples;Min_cycle;Max_cycle;Signal;HPM_P1;HPM_P2
2020/12/07 00:01:46;;;;;;;2.63;1.73;;;3.10;99.90;;;;;;4239297;27;20275;-43
2020/12/07 00:03:47;;;;;;;2.60;1.80;;;3.10;99.90;;;;;;4239017;27;20280;-49
2020/12/07 00:05:48;;;;;;;3.53;1.73;;;3.00;99.90;;;;;;4238806;27;20312;-39
2020/12/07 00:07:49;;;;;;;2.87;1.57;;;3.00;99.90;;;;;;4238797;27;20271;-50
2020/12/07 00:09:51;;;;;;;3.53;1.70;;;2.90;99.90;;;;;;4238933;27;20324;-41
2020/12/07 00:11:52;;;;;;;3.10;1.60;;;2.90;99.90;;;;;;4240002;27;20889;-40
2020/12/07 00:13:53;;;;;;;2.07;1.47;;;2.90;99.90;;;;;;4239496;27;20324;-43
2020/12/07 00:15:54;;;;;;;3.23;1.73;;;2.90;99.90;;;;;;4239345;27;20287;-38
2020/12/07 00:17:55;;;;;;;3.67;2.20;;;2.90;99.90;;;;;;4238225;27;20908;-42
2020/12/07 00:19:56;;;;;;;2.73;1.60;;;2.80;99.90;;;;;;4239334;27;20689;-43
2020/12/07 00:21:57;;;;;;;3.10;2.07;;;2.80;99.90;;;;;;4238597;27;20320;-38
2020/12/07 00:23:58;;;;;;;3.67;1.70;;;2.70;99.90;;;;;;4239433;28;20268;-44
2020/12/07 00:25:59;;;;;;;4.20;2.17;;;2.70;99.90;;;;;;4237020;28;20283;-42
2020/12/07 00:28:00;;;;;;;3.07;1.90;;;2.60;99.90;;;;;;4239566;28;20677;-45
2020/12/07 00:30:04;;;;;;;5.17;2.53;;;2.50;99.90;;;;;;4239239;27;20347;-42
2020/12/07 00:32:05;;;;;;;4.53;2.53;;;2.40;99.90;;;;;;4241680;27;20324;-41
2020/12/07 00:34:06;;;;;;;3.90;1.90;;;2.30;99.90;;;;;;4241999;27;20279;-43
2020/12/07 00:36:08;;;;;;;3.70;2.23;;;2.30;99.90;;;;;;4242897;27;20308;-39
2020/12/07 00:38:09;;;;;;;5.00;2.00;;;2.10;99.90;;;;;;4241803;27;20835;-42
2020/12/07 00:40:10;;;;;;;4.27;1.90;;;2.10;99.90;;;;;;4242581;27;20691;-43
2020/12/07 00:42:12;;;;;;;1.90;1.70;;;2.10;99.90;;;;;;4243357;27;20259;-41
2020/12/07 00:44:13;;;;;;;3.10;1.77;;;2.20;99.90;;;;;;4241856;27;20276;-40
2020/12/07 00:46:15;;;;;;;3.77;1.93;;;2.20;99.90;;;;;;4241487;27;20275;-52
2020/12/07 00:48:16;;;;;;;4.47;1.77;;;2.30;99.90;;;;;;4242236;27;21124;-46
2020/12/07 00:50:17;;;;;;;3.97;2.30;;;2.30;99.90;;;;;;4242293;27;20355;-46
2020/12/07 00:52:19;;;;;;;4.03;2.10;;;2.30;99.90;;;;;;4241778;27;20328;-44
2020/12/07 00:54:20;;;;;;;5.00;1.90;;;2.30;99.90;;;;;;4242705;27;20264;-49
2020/12/07 00:56:21;;;;;;;2.23;1.50;;;2.30;99.90;;;;;;4241369;27;20309;-56
2020/12/07 00:58:22;;;;;;;2.50;1.50;;;2.30;99.90;;;;;;4242526;27;20339;-40
2020/12/07 01:00:23;;;;;;;2.67;1.40;;;2.20;99.90;;;;;;4241401;27;20670;-41
2020/12/07 01:02:24;;;;;;;3.63;1.70;;;2.20;99.90;;;;;;4242045;27;21286;-38
2020/12/07 01:04:25;;;;;;;3.07;1.70;;;2.20;99.90;;;;;;4241441;27;20267;-43
2020/12/07 01:06:33;;;;;;;4.67;2.10;;;2.10;99.90;;;;;;4242000;27;20275;-41
2020/12/07 01:08:34;;;;;;;3.13;1.90;;;2.10;99.90;;;;;;4240912;27;20848;-42
2020/12/07 01:10:36;;;;;;;5.07;2.07;;;2.00;99.90;;;;;;4241207;27;20332;-42
2020/12/07 01:12:37;;;;;;;2.87;1.73;;;2.10;99.90;;;;;;4242578;27;20248;-42
2020/12/07 01:14:38;;;;;;;2.93;1.83;;;2.10;99.90;;;;;;4241872;27;20263;-51
2020/12/07 01:16:40;;;;;;;2.93;1.53;;;2.20;99.90;;;;;;4241442;27;20260;-41
2020/12/07 01:18:41;;;;;;;2.73;1.47;;;2.30;99.90;;;;;;4241502;27;20596;-47
2020/12/07 01:20:42;;;;;;;7.33;1.37;;;2.40;99.90;;;;;;4242151;27;20800;-41
2020/12/07 01:22:44;;;;;;;1.40;1.07;;;2.40;99.90;;;;;;4241787;27;20316;-48
2020/12/07 01:24:45;;;;;;;2.00;1.73;;;2.40;99.90;;;;;;4242408;27;20264;-39
2020/12/07 01:26:46;;;;;;;3.93;1.67;;;2.40;99.90;;;;;;4221734;28;20292;-40
2020/12/07 01:28:48;;;;;;;6.13;1.70;;;2.50;99.90;;;;;;4241544;27;20850;-46
2020/12/07 01:30:49;;;;;;;2.87;1.47;;;2.50;99.90;;;;;;4240131;27;20328;-50
2020/12/07 01:32:50;;;;;;;2.57;1.40;;;2.50;99.90;;;;;;4242366;27;20320;-41
2020/12/07 01:34:51;;;;;;;4.20;1.63;;;2.50;99.90;;;;;;4241126;27;20252;-44
2020/12/07 01:36:52;;;;;;;3.90;1.73;;;2.50;99.90;;;;;;4242146;27;20259;-39
2020/12/07 01:38:53;;;;;;;3.77;2.10;;;2.60;99.90;;;;;;4240476;27;20255;-44
2020/12/07 01:40:54;;;;;;;2.80;1.40;;;2.60;99.90;;;;;;4240966;27;20747;-39
2020/12/07 01:42:55;;;;;;;2.53;2.00;;;2.60;99.90;;;;;;4242320;27;20803;-41
2020/12/07 01:44:56;;;;;;;2.23;1.60;;;2.60;99.90;;;;;;4240727;27;20332;-50
2020/12/07 01:46:58;;;;;;;4.20;1.33;;;2.60;99.90;;;;;;4241719;27;20386;-39
2020/12/07 01:48:59;;;;;;;2.13;1.23;;;2.60;99.90;;;;;;4240792;27;20272;-48
2020/12/07 01:51:00;;;;;;;3.53;1.50;;;2.70;99.90;;;;;;4240672;27;20283;-41
2020/12/07 01:53:02;;;;;;;2.83;1.17;;;2.60;99.90;;;;;;4241082;27;20672;-48
2020/12/07 01:55:04;;;;;;;2.60;1.40;;;2.70;99.90;;;;;;4241270;27;20271;-42
2020/12/07 01:57:05;;;;;;;3.00;1.60;;;2.70;99.90;;;;;;4241309;27;20263;-54
2020/12/07 01:59:06;;;;;;;2.60;1.47;;;2.70;99.90;;;;;;4241868;27;20283;-39
2020/12/07 02:01:07;;;;;;;3.10;1.63;;;2.70;99.90;;;;;;4240474;27;20317;-41
2020/12/07 02:03:11;;;;;;;9.50;2.10;;;2.60;99.90;;;;;;4241739;27;20321;-39
2020/12/07 02:05:13;;;;;;;2.17;1.23;;;2.60;99.90;;;;;;4240045;27;20291;-39
2020/12/07 02:07:20;;;;;;;2.93;1.70;;;2.60;99.90;;;;;;4241354;27;20274;-42
2020/12/07 02:09:28;;;;;;;2.17;1.57;;;2.70;99.90;;;;;;4240571;27;20321;-40
2020/12/07 02:11:29;;;;;;;3.67;1.70;;;2.60;99.90;;;;;;4241508;27;20317;-42
2020/12/07 02:13:30;;;;;;;1.97;1.30;;;2.60;99.90;;;;;;4244682;27;20274;-46
2020/12/07 02:15:32;;;;;;;2.73;1.60;;;2.60;99.90;;;;;;4257681;27;20275;-38
2020/12/07 02:17:33;;;;;;;4.13;1.80;;;2.60;99.90;;;;;;4257871;27;20859;-38
2020/12/07 02:19:34;;;;;;;6.57;2.17;;;2.60;99.90;;;;;;4255829;27;20295;-45
2020/12/07 02:21:35;;;;;;;5.07;2.57;;;2.50;99.90;;;;;;4241522;27;20685;-52
2020/12/07 02:23:36;;;;;;;3.90;2.03;;;2.50;99.90;;;;;;4240304;27;20295;-40
2020/12/07 02:25:37;;;;;;;3.10;1.57;;;2.40;99.90;;;;;;4241113;27;20331;-42
2020/12/07 02:27:38;;;;;;;3.77;1.80;;;2.40;99.90;;;;;;4239994;27;20808;-39
2020/12/07 02:29:39;;;;;;;2.27;1.43;;;2.40;99.90;;;;;;4240848;27;20336;-42
2020/12/07 02:31:40;;;;;;;3.13;1.60;;;2.40;99.90;;;;;;4240575;27;20312;-49
2020/12/07 02:33:41;;;;;;;2.53;1.43;;;2.40;99.90;;;;;;4240913;27;20705;-41
2020/12/07 02:35:42;;;;;;;2.13;1.30;;;2.40;99.90;;;;;;4239805;27;20300;-39
2020/12/07 02:37:45;;;;;;;3.57;2.00;;;2.40;99.90;;;;;;4239892;27;20283;-39
2020/12/07 02:39:46;;;;;;;2.73;1.67;;;2.40;99.90;;;;;;4240144;27;20706;-42
2020/12/07 02:41:47;;;;;;;2.83;1.30;;;2.50;99.90;;;;;;4240311;27;20272;-40
2020/12/07 02:43:48;;;;;;;2.53;1.60;;;2.50;99.90;;;;;;4240243;27;20352;-40
2020/12/07 02:45:49;;;;;;;3.27;1.77;;;2.40;99.90;;;;;;4240753;27;20271;-51
2020/12/07 02:47:50;;;;;;;3.63;1.67;;;2.40;99.90;;;;;;4240758;27;20616;-54
2020/12/07 02:49:55;;;;;;;3.50;1.80;;;2.40;99.90;;;;;;4240467;27;20263;-41
2020/12/07 02:51:56;;;;;;;5.17;1.90;;;2.40;99.90;;;;;;4239869;27;20328;-39
2020/12/07 02:53:57;;;;;;;3.73;1.87;;;2.40;99.90;;;;;;4238716;27;20276;-38
2020/12/07 02:55:58;;;;;;;3.83;1.83;;;2.40;99.90;;;;;;4240332;27;20815;-48
2020/12/07 02:58:00;;;;;;;2.23;1.60;;;2.30;99.90;;;;;;4239258;27;20765;-50
2020/12/07 03:00:01;;;;;;;2.40;1.73;;;2.30;99.90;;;;;;4240633;27;20344;-39
2020/12/07 03:02:02;;;;;;;6.10;1.80;;;2.30;99.90;;;;;;4240211;27;20672;-39
2020/12/07 03:04:03;;;;;;;5.37;2.07;;;2.20;99.90;;;;;;4240326;27;20275;-42
2020/12/07 03:06:04;;;;;;;4.57;1.90;;;2.10;99.90;;;;;;4239749;27;20271;-39
2020/12/07 03:08:05;;;;;;;4.43;2.00;;;2.00;99.90;;;;;;4239808;27;20279;-42
2020/12/07 03:10:06;;;;;;;3.30;1.90;;;1.80;99.90;;;;;;4238773;27;20279;-49
2020/12/07 03:12:08;;;;;;;5.60;2.37;;;1.70;99.90;;;;;;4239978;27;20359;-41
2020/12/07 03:14:10;;;;;;;4.67;2.13;;;1.50;99.90;;;;;;4239717;27;20275;-51
2020/12/07 03:16:11;;;;;;;4.70;2.40;;;1.50;99.90;;;;;;4240065;27;20754;-40
2020/12/07 03:18:12;;;;;;;4.37;2.07;;;1.40;99.90;;;;;;4239401;27;20267;-44
2020/12/07 03:20:13;;;;;;;3.83;2.17;;;1.50;99.90;;;;;;4239802;27;20279;-43
2020/12/07 03:22:14;;;;;;;7.67;3.27;;;1.50;99.90;;;;;;4239343;27;20379;-43
2020/12/07 03:24:15;;;;;;;6.73;2.63;;;1.50;99.90;;;;;;4238960;27;20276;-40
2020/12/07 03:26:16;;;;;;;3.83;1.90;;;1.50;99.90;;;;;;4239256;27;20339;-39
2020/12/07 03:28:17;;;;;;;4.30;2.13;;;1.50;99.90;;;;;;4239142;27;20272;-39
2020/12/07 03:30:19;;;;;;;5.40;2.30;;;1.50;99.90;;;;;;4238940;27;20283;-39
2020/12/07 03:32:20;;;;;;;5.03;2.47;;;1.50;99.90;;;;;;4239285;27;20312;-41
2020/12/07 03:34:21;;;;;;;3.80;2.67;;;1.50;99.90;;;;;;4239325;27;21153;-42
2020/12/07 03:36:22;;;;;;;2.67;2.17;;;1.50;99.90;;;;;;4239334;27;20256;-54
2020/12/07 03:38:23;;;;;;;3.60;1.80;;;1.50;99.90;;;;;;4239034;27;20276;-46
2020/12/07 03:40:24;;;;;;;4.90;2.70;;;1.40;99.90;;;;;;4238847;27;20708;-40
2020/12/07 03:42:26;;;;;;;4.67;2.40;;;1.40;99.90;;;;;;4240213;27;20308;-40
2020/12/07 03:44:27;;;;;;;4.10;2.13;;;1.40;99.90;;;;;;4239031;27;20328;-42
2020/12/07 03:46:28;;;;;;;3.90;2.23;;;1.40;99.90;;;;;;4239703;27;20279;-40
2020/12/07 03:48:29;;;;;;;4.23;2.07;;;1.30;99.90;;;;;;4238445;27;20339;-39
2020/12/07 03:50:30;;;;;;;3.90;2.40;;;1.30;99.90;;;;;;4238720;27;20275;-41
2020/12/07 03:52:31;;;;;;;4.50;2.40;;;1.30;99.90;;;;;;4239443;27;20263;-45
2020/12/07 03:54:32;;;;;;;4.80;2.20;;;1.40;99.90;;;;;;4239693;27;20765;-46
2020/12/07 03:56:33;;;;;;;6.07;2.13;;;1.40;99.90;;;;;;4238687;27;20294;-39
2020/12/07 03:58:34;;;;;;;2.80;1.90;;;1.50;99.90;;;;;;4239180;27;20335;-40
2020/12/07 04:00:36;;;;;;;3.57;2.10;;;1.60;99.90;;;;;;4239054;27;20294;-39
2020/12/07 04:02:37;;;;;;;2.30;1.83;;;1.70;99.90;;;;;;4239087;27;20279;-40
2020/12/07 04:04:47;;;;;;;5.27;2.50;;;1.80;99.90;;;;;;4239282;27;20328;-41
2020/12/07 04:06:50;;;;;;;3.60;1.80;;;2.00;99.90;;;;;;4238424;27;20309;-45
2020/12/07 04:08:51;;;;;;;2.30;1.73;;;2.00;99.90;;;;;;4239981;27;20019;-40
2020/12/07 04:10:52;;;;;;;5.50;1.90;;;2.10;99.90;;;;;;4238540;27;20996;-42
2020/12/07 04:12:54;;;;;;;3.40;1.93;;;2.10;99.90;;;;;;4239160;27;20275;-51
2020/12/07 04:14:55;;;;;;;5.40;2.20;;;2.20;99.90;;;;;;4238663;27;20312;-39
2020/12/07 04:16:56;;;;;;;3.70;1.93;;;2.20;99.90;;;;;;4239769;27;20340;-41
2020/12/07 04:18:57;;;;;;;5.73;2.43;;;2.30;99.90;;;;;;4238653;27;20263;-40
2020/12/07 04:21:00;;;;;;;3.43;1.60;;;2.30;99.90;;;;;;4238266;27;20299;-39
2020/12/07 04:23:01;;;;;;;4.60;1.90;;;2.30;99.90;;;;;;4237927;27;20344;-43
2020/12/07 04:25:03;;;;;;;4.53;2.00;;;2.30;99.90;;;;;;4238689;27;20256;-44
2020/12/07 04:27:04;;;;;;;5.10;1.97;;;2.30;99.90;;;;;;4239657;28;20827;-50
2020/12/07 04:29:05;;;;;;;4.27;2.10;;;2.40;99.90;;;;;;4238706;28;20332;-41
2020/12/07 04:31:07;;;;;;;4.50;2.37;;;2.40;99.90;;;;;;4239342;28;20334;-43
2020/12/07 04:33:08;;;;;;;4.97;2.53;;;2.40;99.90;;;;;;4237819;28;20283;-47
2020/12/07 04:35:09;;;;;;;4.90;1.97;;;2.30;99.90;;;;;;4238484;28;20684;-41
2020/12/07 04:37:10;;;;;;;4.33;2.37;;;2.40;99.90;;;;;;4238414;28;20256;-43
2020/12/07 04:39:11;;;;;;;4.00;1.97;;;2.40;99.90;;;;;;4238387;28;20292;-42
2020/12/07 04:41:13;;;;;;;3.60;2.10;;;2.40;99.90;;;;;;4238104;28;20333;-48
2020/12/07 04:43:16;;;;;;;3.73;1.97;;;2.40;99.90;;;;;;4238235;28;20741;-49
2020/12/07 04:45:17;;;;;;;6.63;3.17;;;2.40;99.90;;;;;;4238808;28;20263;-40
2020/12/07 04:47:19;;;;;;;4.30;2.60;;;2.40;99.90;;;;;;4238750;28;20774;-42
2020/12/07 04:49:21;;;;;;;7.10;2.70;;;2.20;99.90;;;;;;4238146;28;20252;-43
2020/12/07 04:51:23;;;;;;;7.57;2.87;;;2.10;99.90;;;;;;4238113;28;20275;-41
2020/12/07 04:53:25;;;;;;;4.80;2.50;;;1.90;99.90;;;;;;4238576;28;20332;-54
2020/12/07 04:55:27;;;;;;;7.87;3.57;;;1.70;99.90;;;;;;4238995;28;20379;-46
2020/12/07 04:57:30;;;;;;;4.23;2.83;;;1.60;99.90;;;;;;4238807;28;20259;-45
2020/12/07 04:59:37;;;;;;;4.90;2.47;;;1.60;99.90;;;;;;4238435;28;20263;-46
2020/12/07 05:01:38;;;;;;;4.70;2.40;;;1.80;99.90;;;;;;4237688;28;20287;-43
2020/12/07 05:03:39;;;;;;;4.60;2.30;;;1.90;99.90;;;;;;4238879;28;20744;-42
2020/12/07 05:05:41;;;;;;;3.93;2.27;;;2.00;99.90;;;;;;4238339;28;20275;-51
2020/12/07 05:07:48;;;;;;;4.57;2.57;;;2.20;99.90;;;;;;4238004;28;20283;-40
2020/12/07 05:09:49;;;;;;;3.70;2.03;;;2.20;99.90;;;;;;4237904;28;20930;-46
2020/12/07 05:11:50;;;;;;;5.70;2.40;;;2.20;99.90;;;;;;4221580;28;20321;-46
2020/12/07 05:13:59;;;;;;;4.30;2.30;;;2.30;99.90;;;;;;4222031;28;20646;-43
2020/12/07 05:16:00;;;;;;;4.60;2.53;;;2.20;99.90;;;;;;4220620;28;20321;-44
2020/12/07 05:18:01;;;;;;;2.47;1.83;;;2.20;99.90;;;;;;4224002;28;20309;-41
2020/12/07 05:20:04;;;;;;;3.17;1.93;;;2.30;99.90;;;;;;4239506;27;21327;-38
2020/12/07 05:22:13;;;;;;;4.30;1.90;;;2.30;99.90;;;;;;4242096;27;20319;-39
2020/12/07 05:24:16;;;;;;;5.47;2.53;;;2.20;99.90;;;;;;4245127;27;21300;-41
2020/12/07 05:26:19;;;;;;;4.97;2.33;;;2.20;99.90;;;;;;4259171;27;20274;-51
2020/12/07 05:28:28;;;;;;;4.43;2.43;;;2.20;99.90;;;;;;4258465;27;20323;-42
2020/12/07 05:30:42;;;;;;;6.07;2.83;;;2.20;99.90;;;;;;4259336;27;20319;-40
2020/12/07 05:32:44;;;;;;;4.33;2.33;;;2.10;99.90;;;;;;4258406;27;20243;-40
2020/12/07 05:34:45;;;;;;;4.33;2.73;;;2.10;99.90;;;;;;4258849;27;20259;-40
2020/12/07 05:36:53;;;;;;;6.17;2.63;;;2.10;99.90;;;;;;4258122;27;20267;-41
2020/12/07 05:38:54;;;;;;;3.70;2.37;;;2.10;99.90;;;;;;4259143;27;20266;-41
2020/12/07 05:40:56;;;;;;;4.17;2.60;;;2.10;99.90;;;;;;4257585;27;20302;-45
2020/12/07 05:42:58;;;;;;;3.47;2.10;;;2.10;99.90;;;;;;4257642;27;20686;-43
2020/12/07 05:45:00;;;;;;;4.60;2.47;;;2.10;99.90;;;;;;4242077;27;20751;-46
2020/12/07 05:47:02;;;;;;;6.33;2.43;;;2.10;99.90;;;;;;4240396;27;20332;-42
2020/12/07 05:49:05;;;;;;;3.97;2.00;;;2.10;99.90;;;;;;4241499;27;20283;-39
2020/12/07 05:51:07;;;;;;;5.17;2.20;;;2.10;99.90;;;;;;4241124;27;20271;-54
2020/12/07 05:53:09;;;;;;;6.33;3.40;;;2.10;99.90;;;;;;4241432;27;20267;-40
2020/12/07 05:55:12;;;;;;;10.13;3.70;;;2.10;99.90;;;;;;4240442;27;20344;-40
2020/12/07 05:57:17;;;;;;;10.03;3.73;;;2.10;99.90;;;;;;4240524;27;20819;-38
2020/12/07 05:59:31;;;;;;;7.50;3.87;;;2.10;99.90;;;;;;4237805;27;20344;-37
2020/12/07 06:01:35;;;;;;;6.47;3.10;;;2.10;99.90;;;;;;4241776;27;20763;-38
2020/12/07 06:03:41;;;;;;;7.63;3.00;;;2.10;99.90;;;;;;4240986;27;20263;-40
2020/12/07 06:05:44;;;;;;;6.47;3.57;;;2.00;99.90;;;;;;4240268;27;20316;-40
2020/12/07 06:07:53;;;;;;;5.17;3.07;;;2.00;99.90;;;;;;4240333;27;20267;-43
2020/12/07 06:09:57;;;;;;;4.53;2.87;;;2.10;99.90;;;;;;4224161;28;20267;-40
2020/12/07 06:12:06;;;;;;;8.77;3.17;;;2.30;99.90;;;;;;4223549;28;20332;-48
2020/12/07 06:14:08;;;;;;;4.13;2.03;;;2.50;99.90;;;;;;4227345;27;20731;-37
2020/12/07 06:16:09;;;;;;;3.43;2.10;;;2.60;99.90;;;;;;4239636;27;20271;-38
2020/12/07 06:18:33;;;;;;;4.97;2.13;;;2.70;99.90;;;;;;4240720;27;20263;-37
2020/12/07 06:20:37;;;;;;;4.20;2.10;;;2.90;99.90;;;;;;4239245;27;20295;-39
2020/12/07 06:22:39;;;;;;;4.17;2.13;;;3.00;99.90;;;;;;4240950;27;20324;-37
2020/12/07 06:24:42;;;;;;;3.57;2.00;;;3.10;99.90;;;;;;4239296;27;20268;-41
2020/12/07 06:26:43;;;;;;;4.23;2.13;;;3.20;99.90;;;;;;4240498;27;20743;-38
2020/12/07 06:28:47;;;;;;;4.57;2.30;;;3.30;99.90;;;;;;4239797;27;20316;-37
2020/12/07 06:30:50;;;;;;;5.17;3.03;;;3.40;99.90;;;;;;4239372;27;20283;-38
2020/12/07 06:32:52;;;;;;;5.13;2.67;;;3.40;99.90;;;;;;4240189;27;20349;-40
2020/12/07 06:34:57;;;;;;;3.70;2.27;;;3.40;99.90;;;;;;4240593;27;20650;-37
2020/12/07 06:36:58;;;;;;;6.07;2.53;;;3.50;99.90;;;;;;4239423;27;20365;-42
2020/12/07 06:39:02;;;;;;;4.20;2.43;;;3.70;99.90;;;;;;4239622;27;20267;-54
2020/12/07 06:41:03;;;;;;;4.60;2.70;;;3.80;99.90;;;;;;4239152;27;20302;-40
2020/12/07 06:43:16;;;;;;;5.93;3.37;;;3.90;99.90;;;;;;4239242;27;20332;-38
2020/12/07 06:45:35;;;;;;;8.97;3.50;;;4.00;99.90;;;;;;4239867;27;20268;-37
2020/12/07 06:47:40;;;;;;;10.50;3.80;;;4.20;99.90;;;;;;4240487;27;20324;-38
2020/12/07 06:51:56;;;;;;;6.73;3.50;;;4.30;99.90;;;;;;4240309;27;20263;-41
2020/12/07 06:53:58;;;;;;;5.60;2.13;;;4.50;99.90;;;;;;4239712;27;20317;-43
2020/12/07 06:55:59;;;;;;;3.20;1.90;;;4.50;99.90;;;;;;4239305;27;20271;-39
2020/12/07 06:58:00;;;;;;;4.60;2.37;;;4.60;99.90;;;;;;4239090;27;20340;-38
2020/12/07 07:00:07;;;;;;;5.77;2.43;;;4.50;99.90;;;;;;4239364;27;20274;-40
2020/12/07 07:02:12;;;;;;;6.20;3.23;;;4.60;99.90;;;;;;4239623;27;20279;-53
2020/12/07 07:04:19;;;;;;;13.77;3.53;;;4.60;99.90;;;;;;4239000;27;20263;-38
2020/12/07 07:06:22;;;;;;;5.13;3.30;;;4.60;99.90;;;;;;4240361;27;20278;-42
2020/12/07 07:08:24;;;;;;;8.03;3.27;;;4.60;99.90;;;;;;4238378;27;20309;-43
2020/12/07 07:10:25;;;;;;;7.30;4.03;;;4.50;99.90;;;;;;4240406;27;20271;-46
2020/12/07 07:12:28;;;;;;;6.37;3.87;;;4.50;99.90;;;;;;4238967;27;20267;-45
2020/12/07 07:14:31;;;;;;;4.57;3.03;;;4.60;99.90;;;;;;4239689;27;20263;-42
2020/12/07 07:16:33;;;;;;;5.23;3.20;;;4.80;99.90;;;;;;4239627;27;20075;-39
2020/12/07 07:18:34;;;;;;;3.43;2.37;;;5.10;99.90;;;;;;4239063;27;20420;-43
2020/12/07 07:20:36;;;;;;;5.00;2.97;;;5.30;99.90;;;;;;4236499;27;20067;-44
2020/12/07 07:22:46;;;;;;;6.30;2.30;;;5.40;99.90;;;;;;4236139;27;20089;-38
2020/12/07 07:24:57;;;;;;;3.42;1.70;;;5.60;99.90;;;;;;4230059;27;20452;-44
2020/12/07 07:27:07;;;;;;;;;;;5.70;99.90;;;;;;4224205;27;20040;-43
2020/12/07 07:29:09;;;;;;;2.00;1.17;;;5.70;99.90;;;;;;4221794;28;19957;-45
2020/12/07 07:31:10;;;;;;;3.03;1.40;;;5.70;99.90;;;;;;4238030;27;20551;-39
2020/12/07 07:33:11;;;;;;;2.00;1.37;;;5.90;99.90;;;;;;4235481;27;20900;-41
2020/12/07 07:35:13;;;;;;;3.03;2.13;;;6.00;99.90;;;;;;4226786;27;20153;-54
2020/12/07 07:37:16;;;;;;;2.33;1.60;;;6.00;99.90;;;;;;4238852;27;20103;-41
2020/12/07 07:39:17;;;;;;;4.30;1.17;;;5.90;99.90;;;;;;4238721;27;20035;-41
2020/12/07 07:41:22;;;;;;;1.90;1.30;;;5.90;99.90;;;;;;4237697;27;20569;-44
2020/12/07 07:43:25;;;;;;;1.60;1.27;;;6.10;99.90;;;;;;4233216;27;20020;-41
2020/12/07 07:45:37;;;;;;;2.60;1.60;;;6.20;99.90;;;;;;4222473;28;20088;-46
2020/12/07 07:48:24;;;;;;;2.03;1.20;;;6.30;99.90;;;;;;4222165;28;20047;-43
2020/12/07 08:17:46;;;;;;;3.23;1.57;;;5.60;99.90;;;;;;4238772;27;19956;-58
2020/12/07 08:19:48;;;;;;;5.47;2.10;;;5.50;99.90;;;;;;4239217;27;20271;-59
2020/12/07 08:21:50;;;;;;;2.50;1.50;;;5.30;99.90;;;;;;4237843;27;20291;-51
2020/12/07 08:23:54;;;;;;;3.37;2.13;;;5.30;99.90;;;;;;4238727;27;20259;-54
2020/12/07 08:25:55;;;;;;;2.77;1.90;;;5.30;99.90;;;;;;4238344;27;20263;-44
2020/12/07 08:27:56;;;;;;;3.97;1.80;;;5.30;99.90;;;;;;4238988;28;20287;-41
2020/12/07 08:30:05;;;;;;;6.33;3.07;;;5.30;99.90;;;;;;4239169;28;20275;-45
2020/12/07 08:32:28;;;;;;;3.30;1.97;;;5.40;99.90;;;;;;4239377;28;20668;-54
2020/12/07 08:34:29;;;;;;;2.20;1.60;;;5.50;99.90;;;;;;4238288;28;20743;-52
2020/12/07 08:36:32;;;;;;;4.17;1.80;;;5.60;99.90;;;;;;4243690;27;20266;-43
2020/12/07 08:38:40;;;;;;;3.13;1.80;;;5.50;99.90;;;;;;4238246;27;20279;-40
2020/12/07 08:40:41;;;;;;;3.50;1.80;;;5.50;99.90;;;;;;4239622;28;20316;-43
2020/12/07 08:42:42;;;;;;;2.90;1.93;;;5.40;99.90;;;;;;4238726;28;20272;-39
2020/12/07 08:44:43;;;;;;;4.70;2.00;;;5.50;99.90;;;;;;4238176;28;20275;-44
2020/12/07 08:46:45;;;;;;;4.83;2.20;;;5.50;99.90;;;;;;4239909;28;20263;-43
2020/12/07 08:48:47;;;;;;;6.37;1.80;;;5.50;99.90;;;;;;4237734;28;20835;-45
2020/12/07 08:50:48;;;;;;;4.13;2.17;;;5.50;99.90;;;;;;4239091;27;20588;-44
2020/12/07 08:52:49;;;;;;;6.87;2.20;;;5.50;99.90;;;;;;4241015;27;20346;-44
2020/12/07 08:54:50;;;;;;;3.03;1.50;;;5.40;99.90;;;;;;4242915;27;20363;-42
2020/12/07 08:56:51;;;;;;;3.83;1.57;;;5.40;99.90;;;;;;4241501;27;20308;-44
2020/12/07 08:58:53;;;;;;;3.47;1.47;;;5.40;99.90;;;;;;4242081;27;20283;-60
2020/12/07 09:00:54;;;;;;;3.07;1.97;;;5.40;99.90;;;;;;4240552;27;20752;-41
2020/12/07 09:02:55;;;;;;;2.73;1.37;;;5.40;99.90;;;;;;4242308;27;20672;-46
2020/12/07 09:04:56;;;;;;;3.33;2.00;;;5.50;99.90;;;;;;4240976;27;20275;-47
2020/12/07 09:06:57;;;;;;;3.97;2.50;;;5.50;99.90;;;;;;4242690;27;20271;-44
2020/12/07 09:08:58;;;;;;;6.00;2.37;;;5.50;99.90;;;;;;4241628;27;20335;-50
2020/12/07 09:11:02;;;;;;;4.57;1.60;;;5.50;99.90;;;;;;4241525;27;21149;-53
2020/12/07 09:13:03;;;;;;;4.57;2.00;;;5.50;99.90;;;;;;4241492;27;20328;-50
2020/12/07 09:15:04;;;;;;;5.27;2.13;;;5.50;99.90;;;;;;4241546;27;20286;-57
2020/12/07 09:17:06;;;;;;;2.50;1.33;;;5.40;99.90;;;;;;4241106;27;20671;-56
2020/12/07 09:19:07;;;;;;;5.50;2.30;;;5.30;99.90;;;;;;4241491;27;20267;-52
2020/12/07 09:21:09;;;;;;;3.17;1.87;;;5.30;99.90;;;;;;4242246;27;20295;-51
2020/12/07 09:23:10;;;;;;;4.70;2.43;;;5.30;99.90;;;;;;4238405;27;20305;-48
2020/12/07 09:25:11;;;;;;;3.93;1.90;;;5.30;99.90;;;;;;4225158;28;20722;-57
2020/12/07 09:27:12;;;;;;;2.83;1.70;;;5.30;99.90;;;;;;4225101;28;20264;-51
2020/12/07 09:29:13;;;;;;;3.77;1.87;;;5.20;99.90;;;;;;4238564;27;20267;-46
2020/12/07 09:31:15;;;;;;;4.00;2.07;;;5.20;99.90;;;;;;4241498;27;20275;-62
2020/12/07 09:33:16;;;;;;;4.33;1.90;;;5.30;99.90;;;;;;4242469;27;20274;-49
2020/12/07 09:35:18;;;;;;;3.40;1.57;;;5.40;99.90;;;;;;4222476;28;20276;-43
2020/12/07 09:37:19;;;;;;;1.77;1.30;;;5.40;99.90;;;;;;4240476;27;20302;-56
2020/12/07 09:39:20;;;;;;;2.93;2.03;;;5.30;99.90;;;;;;4241844;27;20275;-59
2020/12/07 09:41:21;;;;;;;3.23;1.67;;;5.40;99.90;;;;;;4223003;28;20787;-48
2020/12/07 09:43:22;;;;;;;3.37;1.77;;;5.50;99.90;;;;;;4241348;27;20308;-59
2020/12/07 09:45:24;;;;;;;3.43;1.50;;;5.50;99.90;;;;;;4241824;27;20271;-43
2020/12/07 09:47:26;;;;;;;4.70;1.60;;;5.50;99.90;;;;;;4241935;27;20309;-57
2020/12/07 09:49:27;;;;;;;2.80;1.50;;;5.50;99.90;;;;;;4241248;27;20394;-53
2020/12/07 09:51:28;;;;;;;6.10;2.07;;;5.50;99.90;;;;;;4241808;27;20377;-49
2020/12/07 09:53:29;;;;;;;4.30;1.63;;;5.50;99.90;;;;;;4241205;27;20264;-54
2020/12/07 09:55:30;;;;;;;2.70;1.60;;;5.60;99.90;;;;;;4241324;27;20271;-49
2020/12/07 09:57:32;;;;;;;3.43;1.90;;;5.70;99.90;;;;;;4241492;27;20260;-57
2020/12/07 09:59:35;;;;;;;3.83;1.73;;;5.80;99.90;;;;;;4240574;27;20282;-50
2020/12/07 10:01:36;;;;;;;5.30;1.80;;;5.90;99.90;;;;;;4239918;27;20359;-51
2020/12/07 10:03:37;;;;;;;2.60;1.63;;;5.90;99.90;;;;;;4238653;27;20696;-52
2020/12/07 10:05:38;;;;;;;4.67;1.63;;;6.00;99.90;;;;;;4227852;27;20280;-42
2020/12/07 10:07:39;;;;;;;3.97;2.33;;;6.00;99.90;;;;;;4241080;27;20264;-45
2020/12/07 10:09:41;;;;;;;5.00;1.87;;;6.00;99.90;;;;;;4239656;27;20325;-40
2020/12/07 10:11:42;;;;;;;6.73;1.70;;;6.00;99.90;;;;;;4241435;27;20300;-43
2020/12/07 10:13:43;;;;;;;4.90;2.80;;;5.90;99.90;;;;;;4240161;27;20299;-43
2020/12/07 10:15:44;;;;;;;6.97;2.63;;;6.00;99.90;;;;;;4240997;27;20336;-51
2020/12/07 10:17:45;;;;;;;10.57;3.97;;;6.00;99.90;;;;;;4240195;27;20263;-47
2020/12/07 10:19:46;;;;;;;4.67;4.10;;;6.00;99.90;;;;;;4240298;27;20268;-43
2020/12/07 10:21:47;;;;;;;2.80;1.97;;;5.90;99.90;;;;;;4240873;27;20320;-40
2020/12/07 10:23:48;;;;;;;5.40;2.27;;;5.90;99.90;;;;;;4240025;27;20279;-39
2020/12/07 10:25:50;;;;;;;5.07;2.37;;;6.00;99.90;;;;;;4240166;27;20340;-39
2020/12/07 10:27:52;;;;;;;4.73;2.20;;;5.90;99.90;;;;;;4241265;27;20268;-47
2020/12/07 10:29:53;;;;;;;4.27;2.00;;;5.90;99.90;;;;;;4240728;27;20263;-45
2020/12/07 10:31:56;;;;;;;2.83;1.67;;;6.00;99.90;;;;;;4240019;27;20787;-42
2020/12/07 10:33:57;;;;;;;3.67;1.70;;;6.10;99.90;;;;;;4240499;27;20319;-41
2020/12/07 10:35:58;;;;;;;3.40;1.50;;;6.00;99.90;;;;;;4240417;27;20746;-48
2020/12/07 10:37:59;;;;;;;5.93;2.27;;;6.10;99.90;;;;;;4241431;27;20271;-43
2020/12/07 10:40:00;;;;;;;3.50;1.90;;;6.10;99.90;;;;;;4236085;27;20300;-43
2020/12/07 10:42:02;;;;;;;3.87;1.90;;;6.10;99.90;;;;;;4239626;27;20794;-49
2020/12/07 10:44:03;;;;;;;5.73;2.27;;;6.20;99.90;;;;;;4239494;27;21169;-46
2020/12/07 10:46:04;;;;;;;2.67;1.83;;;6.20;99.90;;;;;;4239818;27;20279;-42
2020/12/07 10:48:05;;;;;;;5.77;1.77;;;6.30;99.90;;;;;;4239202;27;20275;-44
2020/12/07 10:50:06;;;;;;;4.73;1.70;;;6.50;99.90;;;;;;4239389;27;20267;-49
2020/12/07 10:52:07;;;;;;;3.90;2.10;;;6.50;99.90;;;;;;4240113;27;20413;-43
2020/12/07 10:54:08;;;;;;;3.93;1.40;;;6.60;99.90;;;;;;4239190;27;20287;-44
2020/12/07 10:56:10;;;;;;;2.57;0.93;;;6.70;99.90;;;;;;4238987;27;20247;-44
2020/12/07 10:58:12;;;;;;;2.47;1.07;;;6.70;99.80;;;;;;4237299;27;20251;-39
2020/12/07 11:00:13;;;;;;;2.03;1.10;;;6.70;99.70;;;;;;4238858;27;20296;-42
2020/12/07 11:02:14;;;;;;;2.57;1.27;;;6.80;99.50;;;;;;4224657;27;20303;-39
2020/12/07 11:04:15;;;;;;;3.00;1.43;;;6.80;99.10;;;;;;4230908;27;20332;-49
2020/12/07 11:06:37;;;;;;;1.97;1.30;;;6.80;99.10;;;;;;4238452;27;20316;-45
2020/12/07 11:08:48;;;;;;;2.40;1.10;;;6.90;99.10;;;;;;4239872;27;20034;-45
2020/12/07 11:10:52;;;;;;;1.50;1.05;;;6.90;98.70;;;;;;4239976;27;20263;-53
2020/12/07 11:13:00;;;;;;;3.43;1.33;;;6.90;98.60;;;;;;4238850;27;20092;-51
2020/12/07 11:15:01;;;;;;;4.00;1.47;;;7.00;98.40;;;;;;4227369;27;20674;-40
2020/12/07 11:17:02;;;;;;;3.07;1.37;;;6.90;98.20;;;;;;4223776;27;20043;-39